Golden Iris — 3FZK4 — position and weather

sailwx.info

Track history (hours):
 
Tides and Currents Weather Stations Pressure Air Temp Water Temp Dewpoint Dewpoint Depression Visibility Wind Speed Wind Dir Waves Ship Positions

Golden Iris

Last reported at 2014-Oct-01 14:32 UTC. Time now 2014-Oct-01 20:17 UTC.
Position N 36°54' E 027°17'.

Length 180 m; draft 6 m.

Type: Passenger vessel. MMSI: 371771000.

Date/timePositionNaut miles runAvg speedWind from/ knotsBaromVisibWave heightAir tempDewpointWater temp
2014-Oct-01 14:32N 36°54' E 027°17'  
2014-Sep-28 02:30N 32°54' E 034°46'44414.4
2014-Sep-26 19:33N 35°22' E 026°20'1313.2
2014-Sep-26 18:33N 35°21' E 026°04'1414.5
2014-Sep-26 17:33N 35°14' E 025°49'1 0.1
2014-Sep-26 07:31N 35°14' E 025°48'1211.9
2014-Sep-26 06:30N 35°21' E 025°60'1612.9
2014-Sep-26 05:17N 35°30' E 026°15'1013.2
2014-Sep-26 04:33N 35°36' E 026°25'1313.6
2014-Sep-26 03:34N 35°43' E 026°38'1913.9
2014-Sep-26 02:11N 35°55' E 026°57'32810.4
2014-Sep-24 18:33N 33°49' E 033°06'1414.3
2014-Sep-24 17:33N 33°41' E 033°20'1414.0
2014-Sep-24 16:34N 33°33' E 033°34'2713.6
2014-Sep-24 14:33N 33°18' E 034°01'1513.7
2014-Sep-24 13:29N 33°10' E 034°16'1313.8
2014-Sep-24 12:33N 33°03' E 034°29'1414.2
2014-Sep-24 11:33N 32°57' E 034°44'15 1.9
2014-Sep-24 03:17N 32°49' E 035°00'7 5.8
2014-Sep-24 02:06N 32°53' E 034°53'610.5
2014-Sep-24 01:33N 32°54' E 034°46'6010.0
2014-Sep-23 19:33N 33°44' E 034°07'1110.7
2014-Sep-23 18:33N 33°54' E 034°02'1110.7
2014-Sep-23 17:33N 34°04' E 033°58'1211.7
2014-Sep-23 16:33N 34°15' E 033°52'1312.5
2014-Sep-23 15:32N 34°27' E 033°48'  
Track history (hours):
 
Tides and Currents Weather Stations Pressure Air Temp Water Temp Dewpoint Dewpoint Depression Visibility Wind Speed Wind Dir Waves Ship Positions

Golden Iris

Last reported at 2014-Oct-01 14:32 UTC. Time now 2014-Oct-01 20:17 UTC.
Position N 36°54' E 027°17'.

Length 180 m; draft 6 m.

Type: Passenger vessel. MMSI: 371771000.

Date/timePositionNaut miles runAvg speedWind from/ knotsBaromVisibWave heightAir tempDewpointWater temp
2014-Oct-01 14:32N 36°54' E 027°17'  
2014-Sep-28 02:30N 32°54' E 034°46'44414.4
2014-Sep-26 19:33N 35°22' E 026°20'1313.2
2014-Sep-26 18:33N 35°21' E 026°04'1414.5
2014-Sep-26 17:33N 35°14' E 025°49'1 0.1
2014-Sep-26 07:31N 35°14' E 025°48'1211.9
2014-Sep-26 06:30N 35°21' E 025°60'1612.9
2014-Sep-26 05:17N 35°30' E 026°15'1013.2
2014-Sep-26 04:33N 35°36' E 026°25'1313.6
2014-Sep-26 03:34N 35°43' E 026°38'1913.9
2014-Sep-26 02:11N 35°55' E 026°57'32810.4
2014-Sep-24 18:33N 33°49' E 033°06'1414.3
2014-Sep-24 17:33N 33°41' E 033°20'1414.0
2014-Sep-24 16:34N 33°33' E 033°34'2713.6
2014-Sep-24 14:33N 33°18' E 034°01'1513.7
2014-Sep-24 13:29N 33°10' E 034°16'1313.8
2014-Sep-24 12:33N 33°03' E 034°29'1414.2
2014-Sep-24 11:33N 32°57' E 034°44'15 1.9
2014-Sep-24 03:17N 32°49' E 035°00'7 5.8
2014-Sep-24 02:06N 32°53' E 034°53'610.5
2014-Sep-24 01:33N 32°54' E 034°46'6010.0
2014-Sep-23 19:33N 33°44' E 034°07'1110.7
2014-Sep-23 18:33N 33°54' E 034°02'1110.7
2014-Sep-23 17:33N 34°04' E 033°58'1211.7
2014-Sep-23 16:33N 34°15' E 033°52'1312.5
2014-Sep-23 15:32N 34°27' E 033°48'  

Dump ship's entire track history